Time;durP1;ratioP1;P1;durP2;ratioP2;P2;SDS_P1;SDS_P2;PMS_P1;PMS_P2;Temp;Humidity;BMP_temperature;BMP_pressure;BME280_temperature;BME280_humidity;BME280_pressure;Samples;Min_cycle;Max_cycle;Signal;HPM_P1;HPM_P2
2022/05/05 00:01:32;;;;;;;4.53;3.13;;;20.10;42.90;21.60;101092.00;;;;5028329;28;20181;-55
2022/05/05 00:03:58;;;;;;;4.23;3.10;;;20.00;42.90;21.50;101089.00;;;;5027789;28;20204;-56
2022/05/05 00:06:25;;;;;;;4.67;3.20;;;20.00;43.00;21.50;101106.00;;;;5027948;28;20183;-53
2022/05/05 00:08:50;;;;;;;3.53;3.07;;;20.10;43.20;21.50;101104.00;;;;5027261;28;20542;-56
2022/05/05 00:16:44;;;;;;;4.07;3.03;;;20.00;43.20;21.40;101082.00;;;;5027590;28;20229;-53
2022/05/05 00:19:10;;;;;;;4.13;3.10;;;19.90;43.20;21.40;101071.00;;;;5027932;28;20872;-53
2022/05/05 00:21:38;;;;;;;4.27;3.20;;;19.90;43.30;21.40;101085.00;;;;5027901;28;20180;-54
2022/05/05 00:24:05;;;;;;;3.40;3.10;;;19.90;43.30;21.30;101087.00;;;;5027468;28;20214;-54
2022/05/05 00:26:31;;;;;;;4.57;3.00;;;19.90;43.10;21.30;101088.00;;;;5027513;28;20178;-53
2022/05/05 00:28:57;;;;;;;4.57;3.53;;;19.90;43.10;21.30;101094.00;;;;5027778;28;20770;-53
2022/05/05 00:31:23;;;;;;;3.43;3.00;;;19.80;43.30;21.30;101084.00;;;;5027650;28;20175;-55
2022/05/05 00:33:48;;;;;;;3.50;3.20;;;19.80;43.10;21.20;101086.00;;;;5027702;28;20190;-54
2022/05/05 00:36:14;;;;;;;4.33;3.20;;;19.80;43.10;21.20;101083.00;;;;5028079;28;20644;-55
2022/05/05 00:38:40;;;;;;;3.30;2.90;;;19.80;43.20;21.20;101086.00;;;;5029767;28;20271;-57
2022/05/05 00:41:06;;;;;;;3.97;3.20;;;19.80;43.00;21.20;101083.00;;;;5030618;28;20667;-54
2022/05/05 00:43:32;;;;;;;3.40;3.00;;;19.70;43.20;21.10;101090.00;;;;5029044;28;20286;-53
2022/05/05 00:45:58;;;;;;;4.97;3.00;;;19.70;43.30;21.10;101079.00;;;;5026830;28;20175;-53
2022/05/05 00:48:27;;;;;;;4.03;3.03;;;19.70;43.40;21.10;101080.00;;;;5027352;28;20190;-54
2022/05/05 00:50:52;;;;;;;4.60;3.20;;;19.70;43.30;21.10;101082.00;;;;5027739;28;20772;-53
2022/05/05 00:53:18;;;;;;;3.47;3.10;;;19.70;43.30;21.00;101093.00;;;;5027393;28;20260;-53
2022/05/05 00:55:44;;;;;;;3.37;3.03;;;19.60;43.20;21.00;101083.00;;;;5027287;28;20175;-52
2022/05/05 00:58:10;;;;;;;3.67;2.70;;;19.60;43.20;21.00;101092.00;;;;5025962;28;20174;-53
2022/05/05 01:00:35;;;;;;;3.20;2.90;;;19.60;43.30;21.00;101083.00;;;;5027307;28;20245;-54
2022/05/05 01:03:01;;;;;;;3.37;2.97;;;19.60;43.30;21.00;101089.00;;;;5027300;28;20206;-53
2022/05/05 01:05:27;;;;;;;4.43;3.23;;;19.60;43.20;20.90;101083.00;;;;5027258;28;20623;-55
2022/05/05 01:07:55;;;;;;;3.77;3.17;;;19.60;43.20;20.90;101085.00;;;;5026861;28;20682;-55
2022/05/05 01:10:21;;;;;;;6.17;3.27;;;19.60;43.40;20.90;101020.00;;;;5025887;28;20199;-54
2022/05/05 01:12:47;;;;;;;3.70;3.10;;;19.60;43.40;20.90;101081.00;;;;5025807;28;20624;-56
2022/05/05 01:15:13;;;;;;;3.23;2.90;;;19.50;43.40;20.90;101096.00;;;;5027241;28;20245;-53
2022/05/05 01:17:39;;;;;;;3.57;3.10;;;19.50;43.40;20.80;101085.00;;;;5025724;28;20198;-54
2022/05/05 01:20:16;;;;;;;4.43;3.20;;;19.50;43.40;20.80;101082.00;;;;5027648;28;20178;-54
2022/05/05 01:22:42;;;;;;;4.43;3.40;;;19.50;43.50;20.80;101086.00;;;;5031380;28;20159;-53
2022/05/05 01:30:41;;;;;;;4.63;3.40;;;19.40;43.50;20.70;101094.00;;;;5031996;28;20234;-54
2022/05/05 01:33:14;;;;;;;3.13;2.83;;;19.40;43.50;20.70;101100.00;;;;5031375;28;20179;-55
2022/05/05 01:35:40;;;;;;;3.87;3.10;;;19.40;43.70;20.60;101101.00;;;;5031028;28;20273;-54
2022/05/05 01:38:11;;;;;;;3.70;3.00;;;19.40;43.60;20.60;101102.00;;;;5030816;28;20174;-54
2022/05/05 01:40:37;;;;;;;3.30;3.00;;;19.40;43.60;20.60;101101.00;;;;5029725;28;20159;-54
2022/05/05 01:43:03;;;;;;;3.00;2.70;;;19.40;43.70;20.60;101096.00;;;;5030645;28;20255;-53
2022/05/05 01:45:30;;;;;;;3.40;3.00;;;19.30;43.70;20.60;101095.00;;;;5030838;28;20210;-54
2022/05/05 01:47:56;;;;;;;3.40;3.10;;;19.30;43.70;20.60;101094.00;;;;5030930;28;20217;-54
2022/05/05 01:50:22;;;;;;;3.57;2.90;;;19.30;43.70;20.60;101021.00;;;;5030718;28;20233;-53
2022/05/05 01:52:48;;;;;;;3.33;3.03;;;19.30;43.80;20.50;101110.00;;;;5030833;28;20354;-53
2022/05/05 01:55:14;;;;;;;3.07;2.87;;;19.30;43.80;20.50;101109.00;;;;5030311;28;20613;-55
2022/05/05 01:57:39;;;;;;;3.23;2.93;;;19.20;43.90;20.50;101112.00;;;;5030303;28;20812;-53
2022/05/05 02:00:06;;;;;;;3.40;3.00;;;19.20;43.90;20.50;101112.00;;;;5030367;28;20182;-53
2022/05/05 02:02:32;;;;;;;3.43;3.07;;;19.20;44.00;20.50;101114.00;;;;5030346;28;20183;-54
2022/05/05 02:04:58;;;;;;;3.30;3.00;;;19.20;44.00;20.40;101117.00;;;;5030494;28;20229;-54
2022/05/05 02:07:23;;;;;;;4.07;3.30;;;19.20;44.10;20.40;101109.00;;;;5030413;28;20552;-53
2022/05/05 02:09:49;;;;;;;3.63;3.20;;;19.10;44.10;20.40;101114.00;;;;5030247;28;20255;-53
2022/05/05 02:12:15;;;;;;;3.50;3.10;;;19.10;44.10;20.40;101118.00;;;;5030601;28;20186;-53
2022/05/05 02:14:40;;;;;;;3.83;3.10;;;19.10;44.10;20.40;101131.00;;;;5028904;28;20191;-58
2022/05/05 02:17:06;;;;;;;3.13;2.83;;;19.10;44.20;20.30;101129.00;;;;5030387;28;20182;-53
2022/05/05 02:19:32;;;;;;;3.33;3.03;;;19.10;44.30;20.30;101122.00;;;;5030623;28;20317;-53
2022/05/05 02:21:58;;;;;;;3.40;3.03;;;19.10;44.40;20.30;101121.00;;;;5030272;28;20182;-52
2022/05/05 02:24:24;;;;;;;3.70;3.13;;;19.00;44.40;20.30;101116.00;;;;5029877;28;20229;-51
2022/05/05 02:26:49;;;;;;;3.50;3.10;;;19.00;44.30;20.20;101125.00;;;;5030094;28;20590;-53
2022/05/05 02:29:15;;;;;;;3.87;3.50;;;19.00;44.40;20.20;101124.00;;;;5029855;28;20882;-54
2022/05/05 02:31:41;;;;;;;3.60;3.30;;;19.00;44.50;20.20;101125.00;;;;5029594;28;20179;-53
2022/05/05 02:34:08;;;;;;;3.50;3.20;;;19.00;44.50;19.90;101128.00;;;;5030348;28;20775;-54
2022/05/05 02:39:22;;;;;;;3.47;3.10;;;18.90;44.60;20.20;101126.00;;;;5029905;28;20171;-53
2022/05/05 02:41:48;;;;;;;3.33;3.03;;;18.90;44.70;20.10;101126.00;;;;5029637;28;20218;-54
2022/05/05 02:44:14;;;;;;;3.30;3.00;;;18.90;44.80;20.10;101125.00;;;;5029380;28;20345;-54
2022/05/05 02:46:40;;;;;;;4.10;3.00;;;18.90;44.80;20.10;101124.00;;;;5029627;28;20167;-53
2022/05/05 02:49:06;;;;;;;4.77;3.10;;;18.90;44.90;20.10;101118.00;;;;5029748;28;20171;-54
2022/05/05 02:51:31;;;;;;;3.53;3.23;;;18.90;45.10;20.00;101120.00;;;;5029851;28;20175;-56
2022/05/05 02:56:41;;;;;;;3.27;2.97;;;18.90;45.20;20.00;101127.00;;;;5029599;28;20162;-53
2022/05/05 02:59:07;;;;;;;4.27;3.23;;;18.90;45.20;20.00;101130.00;;;;5029510;28;20202;-53
2022/05/05 03:01:33;;;;;;;3.50;3.20;;;18.90;45.20;19.90;101133.00;;;;5029468;28;20175;-54
2022/05/05 03:03:59;;;;;;;3.63;3.10;;;18.90;45.30;19.90;101128.00;;;;5028868;28;20238;-52
2022/05/05 03:06:25;;;;;;;3.10;2.90;;;18.80;45.30;19.90;101126.00;;;;5029371;28;20179;-54
2022/05/05 03:08:51;;;;;;;4.10;3.70;;;18.80;45.30;19.90;101125.00;;;;5029678;28;20178;-53
2022/05/05 03:11:16;;;;;;;4.37;3.33;;;18.80;45.50;19.80;101127.00;;;;5030075;28;20167;-53
2022/05/05 03:13:42;;;;;;;3.70;3.17;;;18.80;45.30;19.80;101139.00;;;;5029444;28;20221;-53
2022/05/05 03:16:08;;;;;;;3.53;3.23;;;18.80;45.40;19.80;101128.00;;;;5028961;28;20182;-53
2022/05/05 03:18:33;;;;;;;3.87;3.47;;;18.70;45.40;19.80;101138.00;;;;5029222;28;20647;-53
2022/05/05 03:20:59;;;;;;;4.53;3.40;;;18.80;45.70;19.80;101126.00;;;;5028883;28;20186;-53
2022/05/05 03:23:25;;;;;;;3.67;3.33;;;18.80;45.70;19.70;101129.00;;;;5029009;28;20183;-54
2022/05/05 03:25:51;;;;;;;3.57;3.20;;;18.80;45.70;19.70;101079.00;;;;5028865;28;20164;-53
2022/05/05 03:28:17;;;;;;;4.40;3.50;;;18.70;45.60;19.70;101132.00;;;;5029346;28;20178;-52
2022/05/05 03:30:42;;;;;;;3.93;3.30;;;18.80;45.70;19.70;101135.00;;;;5032039;28;20194;-55
2022/05/05 03:33:08;;;;;;;4.63;3.40;;;18.70;45.70;19.70;101136.00;;;;5040185;28;20566;-55
2022/05/05 03:35:34;;;;;;;3.87;3.40;;;18.70;45.70;19.70;101134.00;;;;5029479;28;20818;-54
2022/05/05 03:38:00;;;;;;;3.83;3.43;;;18.70;45.70;19.70;101140.00;;;;5029037;28;20640;-53
2022/05/05 03:40:25;;;;;;;6.03;3.53;;;18.70;45.70;19.70;101144.00;;;;5029055;28;20181;-53
2022/05/05 03:42:51;;;;;;;4.60;3.77;;;18.70;45.70;19.70;101139.00;;;;5027791;28;20309;-54
2022/05/05 03:45:17;;;;;;;8.47;6.97;;;18.70;45.90;19.60;101148.00;;;;5027712;28;20202;-55
2022/05/05 03:47:43;;;;;;;8.40;7.47;;;18.70;46.00;19.60;101123.00;;;;5028333;28;20265;-55
2022/05/05 03:50:09;;;;;;;11.30;10.00;;;18.60;46.00;19.60;101138.00;;;;5028148;28;20170;-53
2022/05/05 03:52:34;;;;;;;6.83;6.13;;;18.70;46.10;19.60;101155.00;;;;5028289;28;20180;-54
2022/05/05 03:55:00;;;;;;;5.37;4.10;;;18.70;46.80;19.60;101155.00;;;;5027948;28;20191;-53
2022/05/05 03:57:26;;;;;;;5.10;4.23;;;18.60;46.10;19.60;101150.00;;;;5037536;28;20179;-52
2022/05/05 03:59:51;;;;;;;4.50;4.07;;;18.60;46.00;19.60;101158.00;;;;5028080;28;20482;-53
2022/05/05 04:02:17;;;;;;;4.47;3.70;;;18.60;46.10;19.60;101141.00;;;;5027915;28;20524;-53
2022/05/05 04:04:43;;;;;;;5.10;4.17;;;18.60;46.10;19.50;101157.00;;;;5027759;28;20203;-55
2022/05/05 04:07:09;;;;;;;4.20;3.80;;;18.60;46.30;19.50;101153.00;;;;5027200;28;20178;-54
2022/05/05 04:09:34;;;;;;;4.20;3.67;;;18.50;46.20;19.50;101149.00;;;;5028197;28;20629;-53
2022/05/05 04:12:00;;;;;;;3.90;3.50;;;18.50;46.40;19.50;101163.00;;;;5027842;28;20286;-53
2022/05/05 04:14:26;;;;;;;5.60;4.17;;;18.50;46.40;19.50;101155.00;;;;5027372;28;20210;-53
2022/05/05 04:16:51;;;;;;;5.03;3.33;;;18.50;46.50;19.50;101156.00;;;;5026925;28;20250;-55
2022/05/05 04:19:17;;;;;;;3.87;3.57;;;18.50;46.50;19.50;101161.00;;;;5027865;28;20182;-52
2022/05/05 04:21:43;;;;;;;4.17;3.77;;;18.50;46.50;19.40;101164.00;;;;5027416;28;20178;-52
2022/05/05 04:24:08;;;;;;;4.27;3.80;;;18.50;46.60;19.40;101158.00;;;;5028362;28;20209;-53
2022/05/05 04:26:34;;;;;;;4.20;3.70;;;18.50;46.70;19.40;101154.00;;;;5027109;28;20236;-53
2022/05/05 04:29:00;;;;;;;4.93;3.60;;;18.40;46.70;19.40;101159.00;;;;5027392;28;20444;-54
2022/05/05 04:31:28;;;;;;;5.37;3.73;;;18.40;46.70;19.40;101157.00;;;;5025907;28;20172;-54
2022/05/05 04:33:54;;;;;;;6.63;3.70;;;18.40;46.70;19.40;101164.00;;;;5043782;28;20199;-53
2022/05/05 04:36:20;;;;;;;4.30;3.67;;;18.30;46.60;19.40;101169.00;;;;5065640;28;20644;-55
2022/05/05 04:38:45;;;;;;;5.67;4.13;;;18.30;46.90;19.30;101173.00;;;;5067259;28;20260;-53
2022/05/05 04:41:11;;;;;;;4.43;3.60;;;18.30;47.00;19.30;101178.00;;;;5067380;28;20171;-52
2022/05/05 04:43:37;;;;;;;4.87;3.87;;;18.40;47.10;19.30;101173.00;;;;5066839;28;20193;-56
2022/05/05 04:46:02;;;;;;;4.07;3.67;;;18.40;47.00;19.30;101172.00;;;;5066544;28;20723;-55
2022/05/05 04:48:28;;;;;;;4.27;3.53;;;18.40;47.00;19.30;101181.00;;;;5067353;28;20160;-52
2022/05/05 04:50:54;;;;;;;4.03;3.63;;;18.40;47.10;19.30;101189.00;;;;5067465;28;20178;-54
2022/05/05 04:53:20;;;;;;;4.17;3.43;;;18.40;47.20;19.30;101183.00;;;;5066973;28;20164;-53
2022/05/05 04:55:45;;;;;;;4.17;3.63;;;18.40;47.20;19.30;101186.00;;;;5067059;28;20532;-53
2022/05/05 04:58:11;;;;;;;4.83;3.70;;;18.40;47.20;19.30;101192.00;;;;5067251;28;20176;-53
2022/05/05 05:00:37;;;;;;;4.13;3.40;;;18.40;47.20;19.30;101193.00;;;;5067015;28;20172;-54
2022/05/05 05:03:02;;;;;;;5.63;3.70;;;18.30;47.10;19.30;101192.00;;;;5067052;28;20759;-55
2022/05/05 05:05:29;;;;;;;4.60;3.67;;;18.30;47.20;19.20;101200.00;;;;5066547;28;20689;-54
2022/05/05 05:07:55;;;;;;;5.13;3.60;;;18.30;47.30;19.20;101197.00;;;;5066851;28;20180;-54
2022/05/05 05:10:20;;;;;;;4.10;3.40;;;18.30;47.30;19.20;101196.00;;;;5067165;28;20166;-57
2022/05/05 05:12:47;;;;;;;4.47;3.30;;;18.30;47.30;19.20;101202.00;;;;5065249;28;20576;-54
2022/05/05 05:15:13;;;;;;;4.43;3.60;;;18.30;47.30;19.20;101196.00;;;;5066516;28;20212;-56
2022/05/05 05:17:38;;;;;;;3.80;3.43;;;18.30;47.30;19.20;101204.00;;;;5066854;28;20186;-54
2022/05/05 05:20:05;;;;;;;4.10;3.70;;;18.30;47.30;19.20;101210.00;;;;5067002;28;20300;-54
2022/05/05 05:22:30;;;;;;;5.40;3.80;;;18.30;47.30;19.20;101212.00;;;;5066895;28;20185;-54
2022/05/05 05:24:56;;;;;;;8.00;4.00;;;18.20;47.30;19.10;101218.00;;;;5066055;28;20772;-54
2022/05/05 05:27:22;;;;;;;4.27;3.70;;;18.20;47.60;19.10;101211.00;;;;5066448;28;20204;-54
2022/05/05 05:29:47;;;;;;;4.40;3.90;;;18.20;47.50;19.10;101213.00;;;;5066600;28;20540;-54
2022/05/05 05:32:13;;;;;;;4.47;3.70;;;18.20;47.70;19.10;101209.00;;;;5066730;28;20185;-54
2022/05/05 05:34:39;;;;;;;4.23;3.83;;;18.30;47.70;19.10;101212.00;;;;5066410;28;20194;-55
2022/05/05 05:37:05;;;;;;;5.13;3.50;;;18.20;47.60;19.10;101227.00;;;;5066186;28;20184;-54
2022/05/05 05:39:31;;;;;;;4.23;3.80;;;18.20;47.60;19.10;101223.00;;;;5072837;28;20186;-55
2022/05/05 05:41:57;;;;;;;5.40;3.97;;;18.20;47.60;19.10;101225.00;;;;5067119;28;20204;-54
2022/05/05 05:44:22;;;;;;;4.93;4.07;;;18.20;47.70;19.10;101232.00;;;;5067401;28;20214;-54
2022/05/05 05:46:48;;;;;;;4.30;3.90;;;18.20;47.80;19.10;101229.00;;;;5066193;28;20175;-52
2022/05/05 05:49:14;;;;;;;4.70;3.90;;;18.20;47.60;19.10;101238.00;;;;5066549;28;20488;-52
2022/05/05 05:51:40;;;;;;;5.70;3.93;;;18.20;47.60;19.10;101229.00;;;;5066683;28;20177;-53
2022/05/05 05:54:06;;;;;;;5.33;4.13;;;18.10;47.60;19.10;101234.00;;;;5066285;28;20202;-54
2022/05/05 05:56:32;;;;;;;5.20;4.70;;;18.10;47.80;19.00;101237.00;;;;5065891;28;20179;-55
2022/05/05 05:58:58;;;;;;;4.47;4.07;;;18.10;47.80;19.10;101237.00;;;;5067002;28;20188;-54
2022/05/05 06:03:53;;;;;;;6.23;4.30;;;18.10;47.70;19.00;101244.00;;;;5066827;28;20182;-55
2022/05/05 06:04:09;;;;;;;5.87;4.47;;;18.10;47.70;19.00;101253.00;;;;5065988;28;20230;-52
2022/05/05 06:06:35;;;;;;;5.87;4.60;;;18.10;47.80;19.00;101249.00;;;;5066938;28;20166;-53
2022/05/05 06:09:01;;;;;;;6.73;4.90;;;18.00;47.80;19.00;101245.00;;;;5069928;28;20219;-53
2022/05/05 06:11:27;;;;;;;5.47;4.63;;;18.10;47.90;19.00;101256.00;;;;5069752;28;20172;-53
2022/05/05 06:13:53;;;;;;;7.90;5.17;;;18.00;47.80;19.00;101253.00;;;;5069960;28;20241;-55
2022/05/05 06:16:18;;;;;;;5.93;5.03;;;18.00;47.90;19.00;101248.00;;;;5069735;28;20173;-53
2022/05/05 06:18:44;;;;;;;6.77;4.43;;;18.00;48.00;19.00;101250.00;;;;5070769;28;20182;-53
2022/05/05 06:21:10;;;;;;;4.83;4.30;;;18.00;47.90;19.00;101255.00;;;;5070163;28;20177;-54
2022/05/05 06:23:37;;;;;;;7.27;4.30;;;18.00;48.00;19.00;101261.00;;;;5069809;28;20883;-53
2022/05/05 06:26:05;;;;;;;4.90;4.23;;;17.90;47.90;19.00;101249.00;;;;5069205;28;20248;-53
2022/05/05 06:28:33;;;;;;;4.90;3.90;;;17.90;47.90;19.00;101253.00;;;;5068687;28;20191;-53
2022/05/05 06:30:59;;;;;;;4.50;4.10;;;18.00;48.00;19.00;101250.00;;;;5068215;28;20192;-54
2022/05/05 06:33:25;;;;;;;5.70;4.47;;;18.00;48.00;19.00;101249.00;;;;5069556;28;20171;-52
2022/05/05 06:35:51;;;;;;;5.43;4.40;;;17.90;47.90;19.00;101248.00;;;;5069350;28;20243;-55
2022/05/05 06:38:16;;;;;;;6.33;4.53;;;18.00;48.10;19.00;101254.00;;;;5069450;28;20173;-52
2022/05/05 06:40:44;;;;;;;4.57;4.13;;;17.90;48.00;19.00;101256.00;;;;5069799;28;20180;-53
2022/05/05 06:43:09;;;;;;;4.83;4.33;;;18.00;48.10;19.00;101259.00;;;;5069484;28;20379;-53
2022/05/05 06:45:35;;;;;;;4.70;4.17;;;18.00;48.20;19.00;101258.00;;;;5069206;28;20231;-53
2022/05/05 06:48:01;;;;;;;5.13;4.20;;;18.00;48.20;19.00;101267.00;;;;5069007;28;20647;-54
2022/05/05 06:50:28;;;;;;;4.97;4.33;;;17.90;48.20;19.00;101266.00;;;;5069657;28;20179;-54
2022/05/05 06:52:53;;;;;;;6.87;4.63;;;17.90;48.00;19.00;101270.00;;;;5069415;28;20299;-53
2022/05/05 06:55:19;;;;;;;5.67;4.60;;;18.00;48.20;19.00;101272.00;;;;5069640;28;20227;-54
2022/05/05 06:57:46;;;;;;;5.10;4.50;;;17.90;48.50;19.00;101278.00;;;;5069700;28;20182;-56
2022/05/05 07:00:13;;;;;;;5.87;4.50;;;18.00;48.60;19.00;101268.00;;;;5069506;28;20181;-53
2022/05/05 07:02:39;;;;;;;4.53;3.90;;;18.00;48.50;19.00;101279.00;;;;5068941;28;20244;-54
2022/05/05 07:05:23;;;;;;;5.33;4.07;;;18.00;48.60;19.10;101285.00;;;;5068491;28;20565;-53
2022/05/05 07:07:49;;;;;;;5.87;3.60;;;18.00;48.60;19.00;101282.00;;;;5068615;28;20235;-53
2022/05/05 07:10:52;;;;;;;4.97;4.50;;;18.00;48.60;19.00;101255.00;;;;5069325;28;20180;-54
2022/05/05 07:13:18;;;;;;;6.07;4.20;;;18.00;48.90;19.10;101282.00;;;;5067864;28;20211;-54
2022/05/05 07:15:44;;;;;;;4.57;4.17;;;18.00;49.40;19.10;101287.00;;;;5068482;28;20664;-54
2022/05/05 07:18:09;;;;;;;6.33;4.30;;;18.10;49.40;19.10;101282.00;;;;5068548;28;20206;-55
2022/05/05 07:20:35;;;;;;;6.10;5.00;;;18.10;49.30;19.10;101274.00;;;;5068999;28;20181;-52
2022/05/05 07:23:01;;;;;;;6.57;5.37;;;18.00;49.00;19.10;101291.00;;;;5068908;28;20765;-53
2022/05/05 07:25:27;;;;;;;8.20;5.30;;;18.00;49.20;19.10;101290.00;;;;4973157;28;20240;-53
2022/05/05 07:27:53;;;;;;;8.27;4.60;;;18.00;49.20;19.10;101287.00;;;;5048711;28;20180;-53
2022/05/05 07:30:19;;;;;;;8.10;4.27;;;18.10;49.40;19.10;101295.00;;;;5052094;28;20167;-53
2022/05/05 07:32:45;;;;;;;7.80;4.60;;;18.10;49.30;19.10;101308.00;;;;5057675;28;20163;-54
2022/05/05 07:35:11;;;;;;;5.67;4.63;;;18.00;49.30;19.10;101277.00;;;;5049269;28;20246;-53
2022/05/05 07:37:38;;;;;;;5.73;4.30;;;18.10;49.50;19.20;101295.00;;;;5049382;28;20166;-53
2022/05/05 07:40:05;;;;;;;6.17;4.70;;;18.10;49.50;19.20;101293.00;;;;5049799;28;20163;-53
2022/05/05 07:42:30;;;;;;;6.77;4.50;;;18.00;49.40;19.20;101286.00;;;;5049338;28;20255;-53
2022/05/05 07:44:56;;;;;;;6.00;4.53;;;18.00;49.50;19.20;101293.00;;;;5049214;28;20209;-54
2022/05/05 07:47:22;;;;;;;4.67;4.17;;;18.10;49.60;19.20;101294.00;;;;5049180;28;20513;-53
2022/05/05 07:49:48;;;;;;;7.20;4.67;;;18.10;49.80;19.20;101297.00;;;;5049751;28;20757;-52
2022/05/05 07:52:13;;;;;;;6.43;4.20;;;18.10;49.70;19.20;101301.00;;;;5049299;28;20176;-53
2022/05/05 07:54:42;;;;;;;5.90;4.50;;;18.10;49.80;19.20;101292.00;;;;5048270;28;20568;-54
2022/05/05 07:57:08;;;;;;;6.13;4.40;;;18.10;49.70;19.20;101302.00;;;;5048133;28;20187;-52
2022/05/05 07:59:34;;;;;;;6.53;4.83;;;18.10;49.60;19.20;101304.00;;;;5048590;28;20185;-58
2022/05/05 08:02:00;;;;;;;7.00;5.30;;;18.10;49.50;19.00;101306.00;;;;5049159;28;20226;-53
2022/05/05 08:04:26;;;;;;;6.57;5.07;;;18.10;49.50;19.20;101301.00;;;;5049411;28;20273;-54
2022/05/05 08:06:52;;;;;;;5.47;4.53;;;18.10;49.70;19.20;101277.00;;;;5049315;28;20638;-53
2022/05/05 08:09:18;;;;;;;5.83;4.80;;;18.10;49.60;19.20;101310.00;;;;5048384;28;20158;-53
2022/05/05 08:11:44;;;;;;;5.17;4.67;;;18.10;49.70;19.00;101306.00;;;;5049573;28;20983;-53
2022/05/05 08:14:10;;;;;;;5.53;4.73;;;18.10;49.80;19.20;101307.00;;;;5049342;28;20266;-54
2022/05/05 08:16:36;;;;;;;5.97;4.00;;;18.10;49.90;19.20;101315.00;;;;5049266;28;20625;-52
2022/05/05 08:19:01;;;;;;;5.87;4.43;;;18.10;50.10;19.20;101312.00;;;;5048963;28;20175;-51
2022/05/05 08:21:27;;;;;;;5.77;4.10;;;18.10;50.30;19.20;101311.00;;;;5047479;28;20201;-51
2022/05/05 08:29:21;;;;;;;6.27;4.00;;;18.10;50.50;19.30;101321.00;;;;5068030;28;20164;-51
2022/05/05 08:31:46;;;;;;;4.90;4.33;;;18.10;50.40;19.30;101333.00;;;;5069138;28;20191;-49
2022/05/05 08:34:12;;;;;;;5.30;4.10;;;18.10;50.30;19.30;101324.00;;;;5064725;28;20830;-50
2022/05/05 08:36:38;;;;;;;8.30;4.40;;;18.10;50.40;19.30;101325.00;;;;5048362;28;20173;-47
2022/05/05 08:39:04;;;;;;;9.23;4.37;;;18.20;50.90;19.20;101318.00;;;;5048597;28;20163;-45
2022/05/05 08:41:30;;;;;;;9.93;4.50;;;18.20;50.90;19.30;101325.00;;;;5048416;28;20177;-48
2022/05/05 08:43:57;;;;;;;7.23;4.70;;;18.20;50.90;19.30;101320.00;;;;5048593;28;20209;-46
2022/05/05 08:46:26;;;;;;;12.07;4.63;;;18.20;50.90;19.30;101320.00;;;;5048505;28;20400;-46
2022/05/05 08:48:55;;;;;;;6.30;4.17;;;18.30;50.50;19.30;101316.00;;;;5048807;28;20169;-44
2022/05/05 08:51:20;;;;;;;7.40;4.07;;;18.30;50.80;19.30;101322.00;;;;5047027;28;20722;-45
2022/05/05 08:53:51;;;;;;;5.87;4.10;;;18.20;50.40;19.30;101319.00;;;;5047451;28;20190;-46
2022/05/05 08:56:16;;;;;;;6.57;3.63;;;18.30;51.30;19.30;101322.00;;;;5047383;28;20212;-44
2022/05/05 08:58:42;;;;;;;6.00;3.90;;;18.30;51.30;19.30;101316.00;;;;5049076;28;20173;-45
2022/05/05 09:01:08;;;;;;;6.33;3.90;;;18.30;51.70;19.40;101324.00;;;;5048433;28;20509;-46
2022/05/05 09:03:36;;;;;;;6.90;4.37;;;18.40;51.10;19.40;101320.00;;;;5048494;28;20208;-46
2022/05/05 09:06:01;;;;;;;5.83;3.90;;;18.40;51.80;19.40;101319.00;;;;5047093;28;20181;-47
2022/05/05 09:08:29;;;;;;;5.23;4.10;;;18.40;52.00;19.40;101317.00;;;;5047604;28;20188;-45
2022/05/05 09:11:03;;;;;;;6.30;3.87;;;18.40;52.20;19.40;101318.00;;;;5047842;28;20831;-45
2022/05/05 09:13:31;;;;;;;5.63;3.80;;;18.50;52.40;19.50;101318.00;;;;5048057;28;20632;-50
2022/05/05 09:15:57;;;;;;;19.17;4.80;;;18.50;52.20;19.50;101328.00;;;;5047723;28;20636;-46
2022/05/05 09:18:29;;;;;;;6.53;4.03;;;18.50;52.50;19.50;101327.00;;;;5047048;28;20228;-45
2022/05/05 09:20:56;;;;;;;5.63;3.80;;;18.50;52.10;19.50;101320.00;;;;5048204;28;20599;-45
2022/05/05 09:26:26;;;;;;;8.20;4.67;;;18.50;52.30;19.50;101318.00;;;;4970755;28;20193;-45
2022/05/05 09:28:52;;;;;;;5.87;4.90;;;18.50;51.40;19.50;101317.00;;;;5055221;28;20258;-45
2022/05/05 09:31:18;;;;;;;10.87;4.73;;;18.50;51.00;19.60;101313.00;;;;5050885;28;20256;-45
2022/05/05 09:33:44;;;;;;;5.40;3.77;;;18.50;51.70;19.60;101321.00;;;;5047810;28;20207;-44
2022/05/05 09:36:13;;;;;;;4.37;3.63;;;18.50;52.10;19.50;101323.00;;;;5048104;28;20283;-44
2022/05/05 09:38:51;;;;;;;4.67;3.50;;;18.50;52.50;19.60;101324.00;;;;5048662;28;20173;-44
2022/05/05 09:41:18;;;;;;;5.77;4.10;;;18.50;52.50;19.60;101326.00;;;;5050010;28;20635;-47
2022/05/05 09:43:44;;;;;;;5.47;4.30;;;18.50;52.30;19.60;101319.00;;;;5052504;28;20281;-45
2022/05/05 09:46:25;;;;;;;8.70;5.00;;;18.50;51.90;19.70;101323.00;;;;5050810;28;20181;-45
2022/05/05 09:48:52;;;;;;;5.90;4.43;;;18.60;51.70;19.60;101330.00;;;;5052410;28;20181;-49
2022/05/05 09:51:17;;;;;;;5.47;4.40;;;18.60;51.80;19.70;101322.00;;;;5052113;28;20173;-44
2022/05/05 09:59:20;;;;;;;6.00;4.93;;;18.60;51.80;19.70;101326.00;;;;5052458;28;20173;-44
2022/05/05 10:01:50;;;;;;;6.60;4.53;;;18.60;51.90;19.70;101330.00;;;;5052203;28;20179;-45
2022/05/05 10:04:17;;;;;;;6.93;4.57;;;18.70;52.00;19.70;101333.00;;;;5050412;28;20267;-46
2022/05/05 10:06:43;;;;;;;7.73;5.07;;;18.70;51.80;19.70;101331.00;;;;5050399;28;20170;-44
2022/05/05 10:09:14;;;;;;;6.37;5.13;;;18.70;51.70;19.70;101335.00;;;;5051957;28;20169;-45
2022/05/05 10:11:40;;;;;;;5.80;4.23;;;18.70;51.50;19.80;101338.00;;;;5051784;28;20541;-45
2022/05/05 10:14:10;;;;;;;5.10;4.00;;;18.70;51.80;19.80;101339.00;;;;5051938;28;20206;-44
2022/05/05 10:16:40;;;;;;;5.97;4.43;;;18.70;51.70;19.80;101342.00;;;;5051214;28;20685;-46
2022/05/05 10:19:06;;;;;;;4.27;3.87;;;18.80;51.90;19.80;101341.00;;;;5051772;28;20657;-45
2022/05/05 10:21:54;;;;;;;8.10;4.47;;;18.70;52.50;19.90;101336.00;;;;5051797;28;20170;-47
2022/05/05 10:24:30;;;;;;;9.27;4.23;;;18.90;52.90;19.90;101331.00;;;;5048662;28;20530;-53
2022/05/05 10:27:05;;;;;;;5.83;3.90;;;18.80;53.00;19.90;101328.00;;;;5049769;28;20189;-52
2022/05/05 10:29:30;;;;;;;6.77;3.77;;;18.90;53.30;19.90;101329.00;;;;5051556;28;20158;-51
2022/05/05 10:32:16;;;;;;;8.03;3.43;;;19.00;53.20;20.00;101340.00;;;;5050966;28;20223;-52
2022/05/05 10:34:47;;;;;;;3.80;3.40;;;19.00;53.50;20.00;101336.00;;;;4991993;28;20198;-50
2022/05/05 10:37:34;;;;;;;6.77;3.90;;;19.00;54.10;20.00;101328.00;;;;5050953;28;20159;-51
2022/05/05 10:40:07;;;;;;;5.57;3.73;;;19.00;53.50;20.00;101336.00;;;;5050372;28;20225;-51
2022/05/05 10:42:45;;;;;;;5.50;3.30;;;19.10;53.70;20.10;101328.00;;;;5050295;28;20643;-53
2022/05/05 10:45:18;;;;;;;5.10;3.70;;;19.10;53.60;20.10;101336.00;;;;5048876;28;20215;-51
2022/05/05 10:47:49;;;;;;;5.07;3.40;;;19.10;53.50;20.10;101334.00;;;;5050723;28;20173;-51
2022/05/05 10:50:54;;;;;;;5.73;3.30;;;19.10;53.70;20.10;101328.00;;;;5050721;28;20227;-50
2022/05/05 10:53:39;;;;;;;4.27;3.63;;;19.20;53.90;20.10;101333.00;;;;5034993;28;20263;-52
2022/05/05 10:56:25;;;;;;;5.13;3.30;;;19.20;53.60;20.20;101334.00;;;;5050547;28;20237;-51
2022/05/05 10:59:08;;;;;;;6.13;3.50;;;19.20;53.60;20.20;101327.00;;;;5051197;28;20165;-52
2022/05/05 11:01:45;;;;;;;3.63;3.13;;;19.30;53.60;20.20;101329.00;;;;5053923;28;20197;-50
2022/05/05 11:04:20;;;;;;;4.67;3.17;;;19.30;53.60;20.20;101330.00;;;;5052527;28;20254;-54
2022/05/05 11:06:48;;;;;;;4.57;3.30;;;19.30;53.70;20.20;101324.00;;;;5050049;28;20173;-51
2022/05/05 11:09:30;;;;;;;6.83;3.30;;;19.40;54.10;20.30;101320.00;;;;5042732;28;20171;-50
2022/05/05 11:12:19;;;;;;;7.07;3.20;;;19.40;54.00;20.30;101331.00;;;;5030276;28;20178;-50
2022/05/05 11:23:39;;;;;;;5.23;3.30;;;19.50;53.80;20.40;101329.00;;;;5049464;28;20220;-49
2022/05/05 11:26:05;;;;;;;5.00;2.97;;;19.60;54.00;20.50;101331.00;;;;5050060;28;20173;-50
2022/05/05 11:28:31;;;;;;;6.27;3.30;;;19.60;53.90;20.50;101329.00;;;;5050784;28;20177;-52